SCIC

General Freire Airport

Airport
ICAO code
SCIC
Summary
ICAO Region
CARSAM
ICAO Territory
Location

Curico, Maule

Serving
Curico
Elevation
722 ft
Coordinates
34° 58' 0" S , 71° 12' 59" W
KCC
Csb
Metar
Observation
SCIC 131600Z VRB02KT CAVOK 14/07 Q1022
Station
Curico
Date/Time
2022-08-13 16:00:00
Wind speed
02 kts
Lowest cloud amount
clouds and visibility OK
Temperature
14°C
Dew point
7°C
Humidity
62%
QNH
1022 hPa
Weather condition
n/a

Airport located on northeastern side of Curico, Maule, Chile.

Climatology

Temperate mediterranean climate (Köppen climate classification Csb)

Runways

Designator Length Width Surface Rops
1/19 800 18 ASP No/No

Airport map

Aerial View

SKYbrary Partners:

Safety knowledge contributed by: